Time;durP1;ratioP1;P1;durP2;ratioP2;P2;SDS_P1;SDS_P2;PMS_P1;PMS_P2;Temp;Humidity;BMP_temperature;BMP_pressure;BME280_temperature;BME280_humidity;BME280_pressure;Samples;Min_cycle;Max_cycle;Signal;HPM_P1;HPM_P2
2022/12/12 00:09:38;;;;;;;30.93;16.47;;;;;;;-6.95;100.00;96977.09;18296581;32;20457;-66
2022/12/12 00:19:42;;;;;;;27.90;14.83;;;;;;;-7.10;100.00;96979.69;18269587;32;20055;-66
2022/12/12 00:29:44;;;;;;;28.92;14.73;;;;;;;-7.06;100.00;96982.78;18295572;32;20385;-66
2022/12/12 00:39:47;;;;;;;26.73;14.77;;;;;;;-6.96;100.00;96980.75;18294926;32;20054;-66
2022/12/12 00:49:49;;;;;;;26.97;14.90;;;;;;;-6.83;100.00;96994.09;18294328;32;20050;-66
2022/12/12 00:59:51;;;;;;;29.30;15.80;;;;;;;-6.72;100.00;96990.22;18279933;32;20050;-67
2022/12/12 01:09:54;;;;;;;26.67;14.70;;;;;;;-6.60;100.00;96995.06;18280209;32;20395;-66
2022/12/12 01:19:56;;;;;;;26.77;15.07;;;;;;;-6.54;100.00;96989.91;18293517;32;20050;-66
2022/12/12 01:30:01;;;;;;;33.60;16.97;;;;;;;-6.50;100.00;97009.59;18284458;32;20438;-66
2022/12/12 01:40:07;;;;;;;31.52;17.35;;;;;;;-6.39;100.00;97012.81;18304268;32;20398;-66
2022/12/12 01:50:10;;;;;;;38.30;19.57;;;;;;;-6.35;100.00;97019.34;18303527;32;20072;-66
2022/12/12 02:00:13;;;;;;;32.60;17.47;;;;;;;-6.27;100.00;97029.00;18288994;32;20387;-66
2022/12/12 02:10:16;;;;;;;36.10;17.17;;;;;;;-6.25;100.00;97040.12;18302206;32;20063;-66
2022/12/12 02:20:58;;;;;;;29.97;16.63;;;;;;;-6.21;100.00;97031.69;18301898;32;20049;-67
2022/12/12 02:31:11;;;;;;;28.87;16.00;;;;;;;-6.13;100.00;97031.62;18301208;32;20464;-67
2022/12/12 02:41:32;;;;;;;28.83;15.47;;;;;;;-6.10;100.00;97033.06;18300762;32;20062;-66
2022/12/12 02:51:37;;;;;;;30.50;15.60;;;;;;;-6.19;100.00;97037.59;18300557;32;20186;-66
2022/12/12 03:02:09;;;;;;;29.52;15.63;;;;;;;-6.27;100.00;97024.53;18285814;32;20054;-66
2022/12/12 03:12:27;;;;;;;32.73;16.27;;;;;;;-6.41;100.00;97027.94;18307202;32;20049;-66
2022/12/12 03:22:52;;;;;;;34.47;16.67;;;;;;;-6.46;100.00;97020.59;18298959;32;20099;-66
2022/12/12 03:32:59;;;;;;;43.37;19.20;;;;;;;-6.45;100.00;97030.13;18298189;32;20110;-66
2022/12/12 03:43:12;;;;;;;38.53;18.77;;;;;;;-6.41;100.00;97027.94;18283999;32;20087;-66
2022/12/12 03:53:50;;;;;;;36.10;19.20;;;;;;;-6.36;100.00;97021.16;18296442;32;20417;-66
2022/12/12 04:04:13;;;;;;;35.37;18.03;;;;;;;-6.41;100.00;97035.81;18285799;32;20362;-66
2022/12/12 04:15:00;;;;;;;33.30;17.57;;;;;;;-6.45;100.00;97030.13;18296383;32;20073;-66
2022/12/12 04:25:11;;;;;;;36.93;18.17;;;;;;;-6.49;100.00;97031.47;18272044;32;20057;-67
2022/12/12 04:35:29;;;;;;;35.87;18.17;;;;;;;-6.53;100.00;97038.09;18295671;32;20434;-66
2022/12/12 04:45:37;;;;;;;36.93;18.40;;;;;;;-6.61;100.00;97049.47;18280701;32;20444;-66
2022/12/12 04:55:43;;;;;;;43.33;19.80;;;;;;;-6.71;100.00;97056.78;18294807;32;20350;-67
2022/12/12 05:06:06;;;;;;;36.40;17.87;;;;;;;-6.89;100.00;97060.53;18300948;32;20080;-66
2022/12/12 05:16:24;;;;;;;33.63;17.40;;;;;;;-7.15;100.00;97072.16;18305019;32;20077;-66
2022/12/12 05:26:29;;;;;;;34.50;17.83;;;;;;;-7.25;100.00;97079.47;18305186;32;20418;-66
2022/12/12 05:36:31;;;;;;;34.73;16.53;;;;;;;-7.21;100.00;97080.75;18304379;32;20114;-66
2022/12/12 05:46:34;;;;;;;37.57;18.17;;;;;;;-7.18;100.00;97092.69;18303720;32;20416;-66
2022/12/12 05:56:36;;;;;;;30.57;15.50;;;;;;;-7.06;100.00;97095.78;18303142;32;20062;-66
2022/12/12 06:06:39;;;;;;;29.13;14.70;;;;;;;-7.00;100.00;97098.53;18302271;32;20054;-66
2022/12/12 06:16:41;;;;;;;29.47;15.00;;;;;;;-6.98;100.00;97099.16;18301600;32;20041;-66
2022/12/12 06:26:45;;;;;;;28.00;15.10;;;;;;;-6.94;100.00;97110.16;18301490;32;20343;-66
2022/12/12 06:36:47;;;;;;;23.83;12.43;;;;;;;-6.92;100.00;97116.06;18301579;32;20395;-66
2022/12/12 06:46:50;;;;;;;25.10;13.53;;;;;;;-6.91;100.00;97128.19;18287084;32;20358;-66
2022/12/12 06:56:53;;;;;;;26.23;13.90;;;;;;;-6.86;100.00;97130.34;18300312;32;20062;-66
2022/12/12 07:06:55;;;;;;;32.90;17.70;;;;;;;-6.76;100.00;97138.81;18299652;32;20404;-66
2022/12/12 07:16:58;;;;;;;36.87;18.00;;;;;;;-6.65;100.00;97146.28;18299015;32;20054;-66
2022/12/12 07:27:01;;;;;;;40.00;18.00;;;;;;;-6.54;100.00;97160.84;18298760;32;20054;-66
2022/12/12 07:37:03;;;;;;;31.47;16.80;;;;;;;-6.43;100.00;97164.09;18284735;32;20163;-66
2022/12/12 07:47:06;;;;;;;42.70;21.03;;;;;;;-6.36;100.00;97171.13;18283955;32;20057;-67
2022/12/12 07:57:09;;;;;;;44.30;21.23;;;;;;;-6.33;100.00;97177.81;18283436;32;20496;-66
2022/12/12 08:07:11;;;;;;;41.67;20.33;;;;;;;-6.13;100.00;97180.81;18296527;32;20064;-66
2022/12/12 08:17:14;;;;;;;39.10;18.53;;;;;;;-5.90;100.00;97170.22;18296229;32;20050;-66
2022/12/12 08:27:17;;;;;;;44.80;20.53;;;;;;;-5.71;100.00;97186.53;18295966;32;20434;-66
2022/12/12 08:37:19;;;;;;;42.33;19.50;;;;;;;-5.56;100.00;97199.72;18280939;32;20130;-66
2022/12/12 08:47:22;;;;;;;39.77;19.17;;;;;;;-5.40;100.00;97207.47;18294591;32;20046;-66
2022/12/12 08:57:25;;;;;;;35.23;17.00;;;;;;;-5.15;100.00;97209.88;18294472;32;20058;-67
2022/12/12 09:07:28;;;;;;;35.07;16.43;;;;;;;-4.76;100.00;97211.37;18280120;32;20112;-67
2022/12/12 09:17:31;;;;;;;36.70;18.17;;;;;;;-4.56;98.68;97221.34;18294097;32;20084;-67
2022/12/12 09:27:34;;;;;;;30.63;15.60;;;;;;;-4.18;98.39;97218.53;18293294;32;20058;-67
2022/12/12 09:37:37;;;;;;;31.03;16.10;;;;;;;-4.02;97.77;97223.59;18292932;32;20090;-67
2022/12/12 09:47:43;;;;;;;29.97;16.27;;;;;;;-3.80;97.07;97228.88;18293766;32;20064;-67
2022/12/12 09:58:01;;;;;;;37.40;18.37;;;;;;;-3.52;99.13;97218.34;18303186;32;20070;-67
2022/12/12 10:08:28;;;;;;;41.80;19.00;;;;;;;-3.11;98.30;97217.63;18237965;32;20055;-67
2022/12/12 10:18:38;;;;;;;36.13;19.70;;;;;;;-2.69;100.00;97219.47;18237958;32;20117;-67
2022/12/12 10:28:41;;;;;;;38.97;21.47;;;;;;;-2.05;100.00;97218.28;18239341;32;20139;-67
2022/12/12 10:38:48;;;;;;;35.70;19.17;;;;;;;-1.72;100.00;97223.62;18237710;31;20059;-67
2022/12/12 10:48:53;;;;;;;34.17;17.27;;;;;;;-1.73;92.38;97219.34;18237810;32;20077;-67
2022/12/12 10:59:02;;;;;;;30.97;16.37;;;;;;;-1.48;92.44;97216.09;18236172;32;20106;-67
2022/12/12 11:09:27;;;;;;;25.93;14.80;;;;;;;-1.15;90.50;97209.13;18296347;32;20438;-68
2022/12/12 11:19:37;;;;;;;29.40;16.60;;;;;;;-1.10;84.57;97207.50;18285263;32;20088;-68
2022/12/12 11:29:49;;;;;;;35.73;18.57;;;;;;;-1.18;81.64;97189.13;18299176;32;20113;-68
2022/12/12 11:39:53;;;;;;;30.20;17.47;;;;;;;-1.19;79.84;97163.66;18284062;32;20423;-67
2022/12/12 11:49:59;;;;;;;30.73;15.17;;;;;;;-0.76;78.58;97151.69;18297469;32;20153;-68
2022/12/12 12:00:22;;;;;;;27.53;14.20;;;;;;;-1.40;77.77;97144.31;18296871;32;20073;-68
2022/12/12 12:10:50;;;;;;;30.97;15.03;;;;;;;-1.64;79.27;97135.13;18282364;32;20077;-67
2022/12/12 12:21:25;;;;;;;32.30;16.37;;;;;;;-1.44;80.28;97121.88;18282640;32;20062;-67
2022/12/12 12:31:39;;;;;;;24.45;13.20;;;;;;;-1.40;79.70;97117.78;18295426;32;20486;-67
2022/12/12 12:42:03;;;;;;;26.50;14.73;;;;;;;-1.35;80.86;97105.75;18281805;32;20053;-67
2022/12/12 12:52:14;;;;;;;25.90;13.23;;;;;;;-1.04;81.38;97092.56;18294855;32;20077;-67
2022/12/12 13:02:22;;;;;;;19.97;12.03;;;;;;;-1.56;80.74;97079.25;18267643;32;20492;-67
2022/12/12 13:12:34;;;;;;;19.57;11.60;;;;;;;-1.60;81.32;97082.53;18294020;32;20088;-67
2022/12/12 13:22:50;;;;;;;22.47;12.03;;;;;;;-1.57;82.65;97060.91;18295453;32;20084;-67
2022/12/12 13:32:56;;;;;;;16.43;10.57;;;;;;;-1.93;81.51;97051.59;18304544;32;20054;-67
2022/12/12 13:43:02;;;;;;;20.43;11.70;;;;;;;-1.97;84.17;97063.62;18303827;32;20070;-68
2022/12/12 13:53:17;;;;;;;20.13;12.20;;;;;;;-2.22;84.12;97053.59;18303813;32;20383;-67
2022/12/12 14:03:30;;;;;;;18.77;11.30;;;;;;;-2.50;84.96;97051.97;18275967;32;20413;-67
2022/12/12 14:13:44;;;;;;;19.40;11.50;;;;;;;-2.26;85.35;97052.37;18302231;32;20058;-67
2022/12/12 14:23:49;;;;;;;20.87;12.17;;;;;;;-2.37;85.71;97050.34;18302032;32;20089;-67
2022/12/12 14:34:03;;;;;;;18.10;10.83;;;;;;;-2.51;87.10;97058.28;18301008;32;20069;-67
2022/12/12 14:44:26;;;;;;;23.07;12.47;;;;;;;-2.69;87.90;97055.41;18300933;32;20062;-67
2022/12/12 14:54:39;;;;;;;23.53;12.73;;;;;;;-2.88;88.29;97054.34;18300292;32;20125;-67
2022/12/12 15:04:46;;;;;;;22.13;12.37;;;;;;;-3.04;90.07;97050.22;18300044;32;20090;-67
2022/12/12 15:14:50;;;;;;;23.23;13.47;;;;;;;-3.15;90.20;97046.31;18285212;32;20045;-67
2022/12/12 15:24:54;;;;;;;20.90;13.03;;;;;;;-3.24;91.71;97054.41;18298938;32;20054;-67
2022/12/12 15:35:00;;;;;;;23.13;13.30;;;;;;;-3.30;91.92;97063.12;18284630;32;20129;-67
2022/12/12 15:45:05;;;;;;;22.43;12.90;;;;;;;-3.52;91.37;97043.09;18296872;32;20062;-66
2022/12/12 15:55:23;;;;;;;21.55;13.23;;;;;;;-3.67;92.11;97043.22;18297268;32;20479;-67
2022/12/12 16:05:33;;;;;;;25.33;14.37;;;;;;;-3.69;94.02;97035.47;18296727;32;20054;-67
2022/12/12 16:15:37;;;;;;;22.90;12.67;;;;;;;-3.79;94.32;97038.47;18296725;32;20116;-67
2022/12/12 16:25:40;;;;;;;23.67;13.70;;;;;;;-3.86;92.82;97048.19;18269586;32;20093;-66
2022/12/12 16:35:42;;;;;;;20.67;12.60;;;;;;;-3.98;93.13;97044.47;18295306;32;20095;-66
2022/12/12 16:45:47;;;;;;;19.47;12.33;;;;;;;-4.06;93.69;97042.78;18295021;32;20065;-66
2022/12/12 16:55:50;;;;;;;22.23;13.20;;;;;;;-4.24;94.44;97045.09;18294200;32;20097;-66
2022/12/12 17:05:53;;;;;;;19.97;12.13;;;;;;;-4.47;94.01;97049.56;18293723;32;20072;-66
2022/12/12 17:15:56;;;;;;;20.90;13.17;;;;;;;-4.81;95.73;97064.25;18294039;32;20474;-66
2022/12/12 17:26:01;;;;;;;22.23;12.90;;;;;;;-5.09;96.78;97042.25;18293463;32;20074;-66
2022/12/12 17:36:06;;;;;;;22.43;13.40;;;;;;;-5.34;97.64;97034.69;18293319;32;20053;-66
2022/12/12 17:46:12;;;;;;;25.57;14.00;;;;;;;-5.53;97.44;97047.41;18278941;32;20093;-66
2022/12/12 17:56:19;;;;;;;24.80;14.30;;;;;;;-5.67;97.33;97029.81;18292571;32;20084;-66
2022/12/12 18:06:22;;;;;;;24.60;14.83;;;;;;;-5.69;98.51;97023.91;18291756;32;20065;-66
2022/12/12 18:16:27;;;;;;;22.97;13.63;;;;;;;-5.70;98.15;97023.09;18301118;32;20445;-66
2022/12/12 18:26:31;;;;;;;23.90;14.70;;;;;;;-5.70;97.81;97014.34;18301844;32;20062;-66
2022/12/12 18:36:34;;;;;;;24.10;13.40;;;;;;;-5.60;96.86;97007.00;18301668;32;20395;-66
2022/12/12 18:46:37;;;;;;;21.70;13.23;;;;;;;-5.54;96.03;97006.25;18287684;32;20080;-66
2022/12/12 18:56:45;;;;;;;22.43;13.13;;;;;;;-5.35;95.72;97006.69;18286624;32;20062;-66
2022/12/12 19:06:49;;;;;;;22.10;13.30;;;;;;;-5.34;95.45;96992.50;18285223;32;20343;-66
2022/12/12 19:16:53;;;;;;;20.00;13.18;;;;;;;-5.40;96.46;96987.97;18299757;32;20061;-66
2022/12/12 19:26:56;;;;;;;23.37;13.10;;;;;;;-5.55;97.43;96973.03;18299211;32;20042;-66
2022/12/12 19:36:59;;;;;;;23.13;13.63;;;;;;;-5.39;97.97;96979.06;18298538;32;20058;-66
2022/12/12 19:47:02;;;;;;;23.87;14.03;;;;;;;-5.28;99.01;96982.06;18297810;32;20042;-66
2022/12/12 19:57:05;;;;;;;23.97;14.10;;;;;;;-5.02;99.74;96972.75;18297482;32;20381;-66
2022/12/12 20:07:07;;;;;;;23.93;14.67;;;;;;;-4.91;99.31;96971.44;18296587;32;20461;-66
2022/12/12 20:17:10;;;;;;;23.03;14.00;;;;;;;-4.87;98.02;96977.97;18296575;32;20113;-65
2022/12/12 20:27:14;;;;;;;22.70;13.73;;;;;;;-5.05;98.56;96964.44;18282623;32;20050;-66
2022/12/12 20:37:16;;;;;;;20.43;12.47;;;;;;;-5.24;100.00;96969.31;18295031;32;20099;-66
2022/12/12 20:47:21;;;;;;;22.35;14.25;;;;;;;-5.30;100.00;96968.22;18281262;32;20094;-66
2022/12/12 20:57:24;;;;;;;23.17;12.97;;;;;;;-5.29;100.00;96961.13;18294785;32;20058;-66
2022/12/12 21:07:27;;;;;;;25.23;13.90;;;;;;;-5.65;99.42;96951.41;18293913;32;20114;-66
2022/12/12 21:17:30;;;;;;;24.43;14.23;;;;;;;-6.13;98.54;96941.34;18293722;32;20091;-66
2022/12/12 21:27:33;;;;;;;24.40;14.27;;;;;;;-6.61;98.02;96939.03;18280486;32;20335;-66
2022/12/12 21:37:35;;;;;;;26.97;15.17;;;;;;;-7.02;98.29;96923.63;18292983;32;20074;-66
2022/12/12 21:47:42;;;;;;;28.70;15.00;;;;;;;-7.35;98.79;96914.19;18299446;32;20058;-65
2022/12/12 21:57:44;;;;;;;34.57;16.97;;;;;;;-7.59;100.00;96914.34;18277180;32;20376;-65
2022/12/12 22:07:46;;;;;;;30.30;16.93;;;;;;;-7.76;100.00;96916.25;18302640;32;20087;-66
2022/12/12 22:17:49;;;;;;;34.73;18.37;;;;;;;-7.80;100.00;96902.66;18302555;32;20057;-65
2022/12/12 22:27:51;;;;;;;36.53;17.73;;;;;;;-7.57;100.00;96880.88;18287444;32;20091;-65
2022/12/12 22:37:54;;;;;;;37.87;19.17;;;;;;;-7.51;100.00;96881.00;18301674;32;20482;-66
2022/12/12 22:47:57;;;;;;;34.57;18.83;;;;;;;-7.39;100.00;96880.56;18301289;32;20476;-66
2022/12/12 22:57:59;;;;;;;33.57;17.93;;;;;;;-7.27;100.00;96894.94;18300406;32;20057;-66
2022/12/12 23:08:02;;;;;;;33.90;17.70;;;;;;;-7.18;100.00;96885.16;18299968;32;20049;-65
2022/12/12 23:18:04;;;;;;;33.07;17.60;;;;;;;-7.01;100.00;96877.97;18299398;32;20058;-66
2022/12/12 23:28:07;;;;;;;34.70;18.70;;;;;;;-7.00;100.00;96879.62;18284741;32;20373;-66
2022/12/12 23:38:15;;;;;;;36.20;19.63;;;;;;;-6.96;100.00;96867.75;18298684;32;20061;-66
2022/12/12 23:48:17;;;;;;;38.10;19.63;;;;;;;-6.93;100.00;96837.63;18297964;32;20113;-66
2022/12/12 23:58:20;;;;;;;34.03;18.67;;;;;;;-6.98;100.00;96831.13;18297575;32;20448;-66
